sensor_id;sensor_type;location;lat;lon;timestamp;P1;durP1;ratioP1;P2;durP2;ratioP2
72590;SDS011;60625;51.212;5.952;2023-04-05T00:02:44;8.50;;;3.80;;
72590;SDS011;60625;51.212;5.952;2023-04-05T00:07:45;11.20;;;3.80;;
72590;SDS011;60625;51.212;5.952;2023-04-05T00:12:47;8.80;;;3.90;;
72590;SDS011;60625;51.212;5.952;2023-04-05T00:17:47;9.80;;;4.40;;
72590;SDS011;60625;51.212;5.952;2023-04-05T00:22:48;7.70;;;3.30;;
72590;SDS011;60625;51.212;5.952;2023-04-05T00:27:49;9.10;;;3.90;;
72590;SDS011;60625;51.212;5.952;2023-04-05T00:32:50;12.00;;;4.40;;
72590;SDS011;60625;51.212;5.952;2023-04-05T00:37:51;13.20;;;3.80;;
72590;SDS011;60625;51.212;5.952;2023-04-05T00:42:51;9.10;;;3.90;;
72590;SDS011;60625;51.212;5.952;2023-04-05T00:47:52;8.80;;;4.00;;
72590;SDS011;60625;51.212;5.952;2023-04-05T00:52:53;9.30;;;3.60;;
72590;SDS011;60625;51.212;5.952;2023-04-05T00:57:54;8.20;;;3.50;;
72590;SDS011;60625;51.212;5.952;2023-04-05T01:02:59;11.10;;;4.00;;
72590;SDS011;60625;51.212;5.952;2023-04-05T01:08:11;10.70;;;3.40;;
72590;SDS011;60625;51.212;5.952;2023-04-05T01:13:16;8.60;;;3.30;;
72590;SDS011;60625;51.212;5.952;2023-04-05T01:18:17;8.20;;;3.60;;
72590;SDS011;60625;51.212;5.952;2023-04-05T01:23:36;9.50;;;3.70;;
72590;SDS011;60625;51.212;5.952;2023-04-05T01:34:50;8.30;;;3.00;;
72590;SDS011;60625;51.212;5.952;2023-04-05T01:39:56;7.80;;;3.40;;
72590;SDS011;60625;51.212;5.952;2023-04-05T01:44:58;8.60;;;2.90;;
72590;SDS011;60625;51.212;5.952;2023-04-05T01:49:58;9.70;;;3.60;;
72590;SDS011;60625;51.212;5.952;2023-04-05T01:55:00;9.00;;;3.60;;
72590;SDS011;60625;51.212;5.952;2023-04-05T02:00:01;7.90;;;3.00;;
72590;SDS011;60625;51.212;5.952;2023-04-05T02:05:01;8.60;;;2.40;;
72590;SDS011;60625;51.212;5.952;2023-04-05T02:10:02;10.50;;;3.10;;
72590;SDS011;60625;51.212;5.952;2023-04-05T02:15:03;8.90;;;2.80;;
72590;SDS011;60625;51.212;5.952;2023-04-05T02:20:06;6.80;;;2.90;;
72590;SDS011;60625;51.212;5.952;2023-04-05T02:25:08;12.10;;;2.80;;
72590;SDS011;60625;51.212;5.952;2023-04-05T02:30:12;7.70;;;2.70;;
72590;SDS011;60625;51.212;5.952;2023-04-05T02:35:15;7.20;;;2.70;;
72590;SDS011;60625;51.212;5.952;2023-04-05T02:40:16;12.20;;;3.70;;
72590;SDS011;60625;51.212;5.952;2023-04-05T02:45:17;7.20;;;3.10;;
72590;SDS011;60625;51.212;5.952;2023-04-05T02:50:17;8.80;;;3.40;;
72590;SDS011;60625;51.212;5.952;2023-04-05T02:55:20;9.10;;;3.10;;
72590;SDS011;60625;51.212;5.952;2023-04-05T03:00:21;9.40;;;3.80;;
72590;SDS011;60625;51.212;5.952;2023-04-05T03:05:22;11.50;;;3.10;;
72590;SDS011;60625;51.212;5.952;2023-04-05T03:10:25;7.70;;;2.70;;
72590;SDS011;60625;51.212;5.952;2023-04-05T03:15:34;11.30;;;3.60;;
72590;SDS011;60625;51.212;5.952;2023-04-05T03:20:39;10.40;;;3.30;;
72590;SDS011;60625;51.212;5.952;2023-04-05T03:25:46;9.50;;;3.30;;
72590;SDS011;60625;51.212;5.952;2023-04-05T03:30:48;8.00;;;3.50;;
72590;SDS011;60625;51.212;5.952;2023-04-05T03:35:51;8.50;;;3.20;;
72590;SDS011;60625;51.212;5.952;2023-04-05T03:40:53;8.10;;;3.30;;
72590;SDS011;60625;51.212;5.952;2023-04-05T03:45:53;7.90;;;3.60;;
72590;SDS011;60625;51.212;5.952;2023-04-05T03:50:54;7.80;;;3.50;;
72590;SDS011;60625;51.212;5.952;2023-04-05T03:55:55;9.90;;;4.20;;
72590;SDS011;60625;51.212;5.952;2023-04-05T04:01:22;9.30;;;3.30;;
72590;SDS011;60625;51.212;5.952;2023-04-05T04:06:22;12.30;;;3.80;;
72590;SDS011;60625;51.212;5.952;2023-04-05T04:11:26;11.70;;;3.80;;
72590;SDS011;60625;51.212;5.952;2023-04-05T04:16:27;10.20;;;4.30;;
72590;SDS011;60625;51.212;5.952;2023-04-05T04:21:30;10.80;;;3.90;;
72590;SDS011;60625;51.212;5.952;2023-04-05T04:26:53;11.40;;;4.20;;
72590;SDS011;60625;51.212;5.952;2023-04-05T04:32:02;11.10;;;5.30;;
72590;SDS011;60625;51.212;5.952;2023-04-05T04:37:35;12.70;;;3.80;;
72590;SDS011;60625;51.212;5.952;2023-04-05T04:42:39;12.40;;;5.30;;
72590;SDS011;60625;51.212;5.952;2023-04-05T04:48:03;13.60;;;5.00;;
72590;SDS011;60625;51.212;5.952;2023-04-05T04:53:22;12.10;;;4.30;;
72590;SDS011;60625;51.212;5.952;2023-04-05T04:58:23;12.20;;;4.20;;
72590;SDS011;60625;51.212;5.952;2023-04-05T05:03:34;10.50;;;4.20;;
72590;SDS011;60625;51.212;5.952;2023-04-05T05:08:36;9.90;;;3.60;;
72590;SDS011;60625;51.212;5.952;2023-04-05T05:13:37;12.20;;;4.00;;
72590;SDS011;60625;51.212;5.952;2023-04-05T05:18:37;8.00;;;3.90;;
72590;SDS011;60625;51.212;5.952;2023-04-05T05:23:40;9.40;;;3.50;;
72590;SDS011;60625;51.212;5.952;2023-04-05T05:28:41;13.70;;;4.50;;
72590;SDS011;60625;51.212;5.952;2023-04-05T05:33:42;10.30;;;4.20;;
72590;SDS011;60625;51.212;5.952;2023-04-05T05:38:47;9.40;;;4.40;;
72590;SDS011;60625;51.212;5.952;2023-04-05T05:43:48;14.00;;;4.80;;
72590;SDS011;60625;51.212;5.952;2023-04-05T05:48:48;9.70;;;4.40;;
72590;SDS011;60625;51.212;5.952;2023-04-05T05:53:49;11.00;;;5.00;;
72590;SDS011;60625;51.212;5.952;2023-04-05T05:58:49;10.90;;;4.40;;
72590;SDS011;60625;51.212;5.952;2023-04-05T06:03:50;12.70;;;4.80;;
72590;SDS011;60625;51.212;5.952;2023-04-05T06:08:50;19.20;;;6.70;;
72590;SDS011;60625;51.212;5.952;2023-04-05T06:13:51;16.30;;;5.40;;
72590;SDS011;60625;51.212;5.952;2023-04-05T06:18:54;18.60;;;6.10;;
72590;SDS011;60625;51.212;5.952;2023-04-05T06:23:55;24.80;;;6.70;;
72590;SDS011;60625;51.212;5.952;2023-04-05T06:28:56;13.10;;;5.80;;
72590;SDS011;60625;51.212;5.952;2023-04-05T06:33:57;21.50;;;7.30;;
72590;SDS011;60625;51.212;5.952;2023-04-05T06:38:57;18.50;;;7.50;;
72590;SDS011;60625;51.212;5.952;2023-04-05T06:43:58;21.00;;;7.30;;
72590;SDS011;60625;51.212;5.952;2023-04-05T06:48:59;21.40;;;7.90;;
72590;SDS011;60625;51.212;5.952;2023-04-05T06:54:00;14.00;;;7.20;;
72590;SDS011;60625;51.212;5.952;2023-04-05T06:59:01;20.10;;;7.50;;
72590;SDS011;60625;51.212;5.952;2023-04-05T07:04:02;17.70;;;8.40;;
72590;SDS011;60625;51.212;5.952;2023-04-05T07:09:02;19.50;;;9.60;;
72590;SDS011;60625;51.212;5.952;2023-04-05T07:14:03;23.80;;;9.90;;
72590;SDS011;60625;51.212;5.952;2023-04-05T07:19:03;19.60;;;8.00;;
72590;SDS011;60625;51.212;5.952;2023-04-05T07:24:05;15.70;;;8.80;;
72590;SDS011;60625;51.212;5.952;2023-04-05T07:29:08;15.40;;;7.80;;
72590;SDS011;60625;51.212;5.952;2023-04-05T07:34:09;16.50;;;8.60;;
72590;SDS011;60625;51.212;5.952;2023-04-05T07:39:09;16.40;;;9.10;;
72590;SDS011;60625;51.212;5.952;2023-04-05T07:44:10;19.30;;;7.20;;
72590;SDS011;60625;51.212;5.952;2023-04-05T07:49:11;22.20;;;8.50;;
72590;SDS011;60625;51.212;5.952;2023-04-05T07:54:11;12.70;;;6.60;;
72590;SDS011;60625;51.212;5.952;2023-04-05T07:59:13;16.10;;;7.20;;
72590;SDS011;60625;51.212;5.952;2023-04-05T08:04:14;15.70;;;6.70;;
72590;SDS011;60625;51.212;5.952;2023-04-05T08:09:14;11.80;;;6.10;;
72590;SDS011;60625;51.212;5.952;2023-04-05T08:14:15;20.60;;;8.30;;
72590;SDS011;60625;51.212;5.952;2023-04-05T08:19:15;15.10;;;7.00;;
72590;SDS011;60625;51.212;5.952;2023-04-05T08:24:16;14.20;;;6.40;;
72590;SDS011;60625;51.212;5.952;2023-04-05T08:29:17;13.30;;;6.20;;
72590;SDS011;60625;51.212;5.952;2023-04-05T08:34:17;13.40;;;6.10;;
72590;SDS011;60625;51.212;5.952;2023-04-05T08:39:17;12.60;;;5.90;;
72590;SDS011;60625;51.212;5.952;2023-04-05T08:44:21;10.90;;;5.20;;
72590;SDS011;60625;51.212;5.952;2023-04-05T08:49:22;14.80;;;6.70;;
72590;SDS011;60625;51.212;5.952;2023-04-05T08:54:22;19.00;;;6.90;;
72590;SDS011;60625;51.212;5.952;2023-04-05T08:59:24;13.40;;;5.80;;
72590;SDS011;60625;51.212;5.952;2023-04-05T09:04:28;13.10;;;5.60;;
72590;SDS011;60625;51.212;5.952;2023-04-05T09:09:32;13.70;;;6.30;;
72590;SDS011;60625;51.212;5.952;2023-04-05T09:14:35;14.50;;;5.60;;
72590;SDS011;60625;51.212;5.952;2023-04-05T09:19:40;12.30;;;5.80;;
72590;SDS011;60625;51.212;5.952;2023-04-05T09:24:42;9.80;;;4.80;;
72590;SDS011;60625;51.212;5.952;2023-04-05T09:29:48;12.40;;;5.50;;
72590;SDS011;60625;51.212;5.952;2023-04-05T09:34:52;11.00;;;4.80;;
72590;SDS011;60625;51.212;5.952;2023-04-05T09:40:04;10.00;;;4.70;;
72590;SDS011;60625;51.212;5.952;2023-04-05T09:45:06;13.10;;;4.70;;
72590;SDS011;60625;51.212;5.952;2023-04-05T09:55:27;9.30;;;3.70;;
72590;SDS011;60625;51.212;5.952;2023-04-05T10:00:29;9.00;;;4.30;;
72590;SDS011;60625;51.212;5.952;2023-04-05T10:05:31;10.00;;;5.00;;
72590;SDS011;60625;51.212;5.952;2023-04-05T10:10:36;9.90;;;5.10;;
72590;SDS011;60625;51.212;5.952;2023-04-05T10:15:49;9.90;;;4.70;;
72590;SDS011;60625;51.212;5.952;2023-04-05T10:20:51;10.70;;;5.10;;
72590;SDS011;60625;51.212;5.952;2023-04-05T10:42:06;12.20;;;5.90;;
72590;SDS011;60625;51.212;5.952;2023-04-05T10:47:22;10.50;;;6.00;;
72590;SDS011;60625;51.212;5.952;2023-04-05T10:52:23;11.50;;;5.80;;
72590;SDS011;60625;51.212;5.952;2023-04-05T10:57:25;11.70;;;4.90;;
72590;SDS011;60625;51.212;5.952;2023-04-05T11:02:27;11.30;;;6.10;;
72590;SDS011;60625;51.212;5.952;2023-04-05T11:07:42;10.80;;;5.20;;
72590;SDS011;60625;51.212;5.952;2023-04-05T11:23:16;10.10;;;5.40;;
72590;SDS011;60625;51.212;5.952;2023-04-05T11:28:36;9.60;;;4.80;;
72590;SDS011;60625;51.212;5.952;2023-04-05T11:38:44;9.70;;;4.70;;
72590;SDS011;60625;51.212;5.952;2023-04-05T11:43:46;12.00;;;3.70;;
72590;SDS011;60625;51.212;5.952;2023-04-05T11:48:50;10.40;;;4.50;;
72590;SDS011;60625;51.212;5.952;2023-04-05T11:53:51;8.40;;;4.30;;
72590;SDS011;60625;51.212;5.952;2023-04-05T11:58:51;11.00;;;5.90;;
72590;SDS011;60625;51.212;5.952;2023-04-05T12:03:53;9.30;;;4.70;;
72590;SDS011;60625;51.212;5.952;2023-04-05T12:08:54;13.00;;;4.80;;
72590;SDS011;60625;51.212;5.952;2023-04-05T12:13:59;13.40;;;6.00;;
72590;SDS011;60625;51.212;5.952;2023-04-05T12:19:00;11.50;;;6.70;;
72590;SDS011;60625;51.212;5.952;2023-04-05T12:24:01;11.50;;;6.10;;
72590;SDS011;60625;51.212;5.952;2023-04-05T12:29:03;10.60;;;5.30;;
72590;SDS011;60625;51.212;5.952;2023-04-05T12:34:05;10.70;;;5.40;;
72590;SDS011;60625;51.212;5.952;2023-04-05T12:39:07;13.00;;;5.90;;
72590;SDS011;60625;51.212;5.952;2023-04-05T12:44:15;9.60;;;6.10;;
72590;SDS011;60625;51.212;5.952;2023-04-05T12:49:28;11.10;;;5.40;;
72590;SDS011;60625;51.212;5.952;2023-04-05T12:54:28;9.80;;;4.90;;
72590;SDS011;60625;51.212;5.952;2023-04-05T12:59:31;10.80;;;5.80;;
72590;SDS011;60625;51.212;5.952;2023-04-05T13:04:32;10.90;;;5.60;;
72590;SDS011;60625;51.212;5.952;2023-04-05T13:09:32;11.40;;;6.10;;
72590;SDS011;60625;51.212;5.952;2023-04-05T13:14:36;10.40;;;6.40;;
72590;SDS011;60625;51.212;5.952;2023-04-05T13:19:36;11.20;;;5.90;;
72590;SDS011;60625;51.212;5.952;2023-04-05T13:24:36;12.70;;;5.80;;
72590;SDS011;60625;51.212;5.952;2023-04-05T13:29:37;8.80;;;4.70;;
72590;SDS011;60625;51.212;5.952;2023-04-05T13:34:38;11.30;;;4.90;;
72590;SDS011;60625;51.212;5.952;2023-04-05T13:39:38;9.50;;;5.30;;
72590;SDS011;60625;51.212;5.952;2023-04-05T13:44:39;14.40;;;5.80;;
72590;SDS011;60625;51.212;5.952;2023-04-05T13:49:39;8.60;;;4.80;;
72590;SDS011;60625;51.212;5.952;2023-04-05T13:54:40;10.80;;;4.90;;
72590;SDS011;60625;51.212;5.952;2023-04-05T13:59:40;10.90;;;5.30;;
72590;SDS011;60625;51.212;5.952;2023-04-05T14:04:41;10.40;;;5.50;;
72590;SDS011;60625;51.212;5.952;2023-04-05T14:09:41;9.90;;;5.20;;
72590;SDS011;60625;51.212;5.952;2023-04-05T14:14:43;10.20;;;5.90;;
72590;SDS011;60625;51.212;5.952;2023-04-05T14:19:44;9.60;;;5.20;;
72590;SDS011;60625;51.212;5.952;2023-04-05T14:24:44;13.90;;;6.20;;
72590;SDS011;60625;51.212;5.952;2023-04-05T14:29:45;10.60;;;6.40;;
72590;SDS011;60625;51.212;5.952;2023-04-05T14:34:46;16.30;;;7.10;;
72590;SDS011;60625;51.212;5.952;2023-04-05T14:39:46;11.00;;;5.90;;
72590;SDS011;60625;51.212;5.952;2023-04-05T14:44:47;7.90;;;4.70;;
72590;SDS011;60625;51.212;5.952;2023-04-05T14:49:47;11.10;;;6.30;;
72590;SDS011;60625;51.212;5.952;2023-04-05T14:54:48;10.80;;;5.80;;
72590;SDS011;60625;51.212;5.952;2023-04-05T14:59:48;13.70;;;6.20;;
72590;SDS011;60625;51.212;5.952;2023-04-05T15:04:49;10.70;;;5.90;;
72590;SDS011;60625;51.212;5.952;2023-04-05T15:09:50;10.10;;;5.90;;
72590;SDS011;60625;51.212;5.952;2023-04-05T15:14:50;13.00;;;6.00;;
72590;SDS011;60625;51.212;5.952;2023-04-05T15:19:53;12.90;;;7.10;;
72590;SDS011;60625;51.212;5.952;2023-04-05T15:24:54;11.00;;;6.00;;
72590;SDS011;60625;51.212;5.952;2023-04-05T15:29:55;11.10;;;5.80;;
72590;SDS011;60625;51.212;5.952;2023-04-05T15:34:56;10.50;;;6.00;;
72590;SDS011;60625;51.212;5.952;2023-04-05T15:39:57;10.60;;;5.60;;
72590;SDS011;60625;51.212;5.952;2023-04-05T15:44:57;10.30;;;5.90;;
72590;SDS011;60625;51.212;5.952;2023-04-05T15:49:58;13.90;;;6.60;;
72590;SDS011;60625;51.212;5.952;2023-04-05T15:54:58;9.50;;;5.40;;
72590;SDS011;60625;51.212;5.952;2023-04-05T15:59:59;12.00;;;6.20;;
72590;SDS011;60625;51.212;5.952;2023-04-05T16:05:00;9.70;;;5.20;;
72590;SDS011;60625;51.212;5.952;2023-04-05T16:10:02;15.50;;;6.10;;
72590;SDS011;60625;51.212;5.952;2023-04-05T16:15:04;12.40;;;6.00;;
72590;SDS011;60625;51.212;5.952;2023-04-05T16:20:05;10.50;;;6.00;;
72590;SDS011;60625;51.212;5.952;2023-04-05T16:25:07;11.30;;;6.00;;
72590;SDS011;60625;51.212;5.952;2023-04-05T16:30:08;12.00;;;6.80;;
72590;SDS011;60625;51.212;5.952;2023-04-05T16:35:09;12.90;;;7.30;;
72590;SDS011;60625;51.212;5.952;2023-04-05T16:40:11;15.20;;;6.70;;
72590;SDS011;60625;51.212;5.952;2023-04-05T16:45:12;13.40;;;6.60;;
72590;SDS011;60625;51.212;5.952;2023-04-05T16:50:12;11.20;;;6.50;;
72590;SDS011;60625;51.212;5.952;2023-04-05T16:55:13;14.20;;;6.20;;
72590;SDS011;60625;51.212;5.952;2023-04-05T17:00:14;13.20;;;5.80;;
72590;SDS011;60625;51.212;5.952;2023-04-05T17:05:15;13.70;;;6.50;;
72590;SDS011;60625;51.212;5.952;2023-04-05T17:10:16;12.80;;;6.30;;
72590;SDS011;60625;51.212;5.952;2023-04-05T17:15:17;14.10;;;6.10;;
72590;SDS011;60625;51.212;5.952;2023-04-05T17:20:17;10.70;;;5.60;;
72590;SDS011;60625;51.212;5.952;2023-04-05T17:25:18;11.20;;;5.90;;
72590;SDS011;60625;51.212;5.952;2023-04-05T17:30:18;10.60;;;5.20;;
72590;SDS011;60625;51.212;5.952;2023-04-05T17:35:19;10.60;;;6.10;;
72590;SDS011;60625;51.212;5.952;2023-04-05T17:40:20;14.40;;;5.50;;
72590;SDS011;60625;51.212;5.952;2023-04-05T17:45:21;9.50;;;4.40;;
72590;SDS011;60625;51.212;5.952;2023-04-05T17:50:21;9.80;;;4.90;;
72590;SDS011;60625;51.212;5.952;2023-04-05T17:55:23;9.60;;;5.30;;
72590;SDS011;60625;51.212;5.952;2023-04-05T18:00:23;9.70;;;4.90;;
72590;SDS011;60625;51.212;5.952;2023-04-05T18:05:24;10.50;;;4.50;;
72590;SDS011;60625;51.212;5.952;2023-04-05T18:10:26;11.30;;;5.20;;
72590;SDS011;60625;51.212;5.952;2023-04-05T18:15:27;12.60;;;5.70;;
72590;SDS011;60625;51.212;5.952;2023-04-05T18:20:28;11.50;;;5.10;;
72590;SDS011;60625;51.212;5.952;2023-04-05T18:25:28;10.40;;;5.50;;
72590;SDS011;60625;51.212;5.952;2023-04-05T18:30:29;8.60;;;4.50;;
72590;SDS011;60625;51.212;5.952;2023-04-05T18:35:29;10.90;;;5.80;;
72590;SDS011;60625;51.212;5.952;2023-04-05T18:40:30;14.60;;;5.70;;
72590;SDS011;60625;51.212;5.952;2023-04-05T18:45:31;13.60;;;5.70;;
72590;SDS011;60625;51.212;5.952;2023-04-05T18:50:31;11.50;;;5.00;;
72590;SDS011;60625;51.212;5.952;2023-04-05T18:55:32;7.60;;;4.20;;
72590;SDS011;60625;51.212;5.952;2023-04-05T19:00:32;13.80;;;5.50;;
72590;SDS011;60625;51.212;5.952;2023-04-05T19:05:34;11.50;;;5.70;;
72590;SDS011;60625;51.212;5.952;2023-04-05T19:10:35;12.20;;;5.70;;
72590;SDS011;60625;51.212;5.952;2023-04-05T19:15:36;13.60;;;6.50;;
72590;SDS011;60625;51.212;5.952;2023-04-05T19:20:37;13.60;;;7.00;;
72590;SDS011;60625;51.212;5.952;2023-04-05T19:25:38;12.50;;;5.90;;
72590;SDS011;60625;51.212;5.952;2023-04-05T19:30:38;14.60;;;6.60;;
72590;SDS011;60625;51.212;5.952;2023-04-05T19:35:40;11.60;;;6.40;;
72590;SDS011;60625;51.212;5.952;2023-04-05T19:40:41;12.50;;;6.00;;
72590;SDS011;60625;51.212;5.952;2023-04-05T19:45:42;12.20;;;6.20;;
72590;SDS011;60625;51.212;5.952;2023-04-05T19:50:45;14.00;;;6.80;;
72590;SDS011;60625;51.212;5.952;2023-04-05T19:55:48;17.50;;;6.80;;
72590;SDS011;60625;51.212;5.952;2023-04-05T20:00:48;17.30;;;8.30;;
72590;SDS011;60625;51.212;5.952;2023-04-05T20:16:12;17.10;;;6.00;;
72590;SDS011;60625;51.212;5.952;2023-04-05T20:21:14;10.60;;;5.90;;
72590;SDS011;60625;51.212;5.952;2023-04-05T20:26:15;14.50;;;7.20;;
72590;SDS011;60625;51.212;5.952;2023-04-05T20:31:20;15.40;;;7.00;;
72590;SDS011;60625;51.212;5.952;2023-04-05T20:36:30;14.20;;;6.60;;
72590;SDS011;60625;51.212;5.952;2023-04-05T20:41:32;14.70;;;6.40;;
72590;SDS011;60625;51.212;5.952;2023-04-05T20:46:33;13.20;;;6.30;;
72590;SDS011;60625;51.212;5.952;2023-04-05T20:51:34;12.40;;;7.10;;
72590;SDS011;60625;51.212;5.952;2023-04-05T20:56:35;16.30;;;6.80;;
72590;SDS011;60625;51.212;5.952;2023-04-05T21:01:36;17.70;;;6.10;;
72590;SDS011;60625;51.212;5.952;2023-04-05T21:06:37;10.90;;;6.40;;
72590;SDS011;60625;51.212;5.952;2023-04-05T21:11:39;18.60;;;8.30;;
72590;SDS011;60625;51.212;5.952;2023-04-05T21:16:39;14.90;;;7.70;;
72590;SDS011;60625;51.212;5.952;2023-04-05T21:21:40;18.70;;;7.80;;
72590;SDS011;60625;51.212;5.952;2023-04-05T21:26:40;16.40;;;8.20;;
72590;SDS011;60625;51.212;5.952;2023-04-05T21:31:41;12.90;;;7.10;;
72590;SDS011;60625;51.212;5.952;2023-04-05T21:36:41;16.10;;;6.50;;
72590;SDS011;60625;51.212;5.952;2023-04-05T21:41:42;13.60;;;6.20;;
72590;SDS011;60625;51.212;5.952;2023-04-05T21:46:42;12.90;;;6.00;;
72590;SDS011;60625;51.212;5.952;2023-04-05T21:51:43;15.20;;;6.70;;
72590;SDS011;60625;51.212;5.952;2023-04-05T21:56:44;14.80;;;6.80;;
72590;SDS011;60625;51.212;5.952;2023-04-05T22:01:45;13.80;;;6.10;;
72590;SDS011;60625;51.212;5.952;2023-04-05T22:06:46;15.10;;;7.00;;
72590;SDS011;60625;51.212;5.952;2023-04-05T22:11:48;13.90;;;6.60;;
72590;SDS011;60625;51.212;5.952;2023-04-05T22:16:49;15.10;;;6.70;;
72590;SDS011;60625;51.212;5.952;2023-04-05T22:21:49;15.50;;;6.90;;
72590;SDS011;60625;51.212;5.952;2023-04-05T22:26:51;12.50;;;6.20;;
72590;SDS011;60625;51.212;5.952;2023-04-05T22:31:52;13.90;;;6.10;;
72590;SDS011;60625;51.212;5.952;2023-04-05T22:36:53;12.70;;;6.40;;
72590;SDS011;60625;51.212;5.952;2023-04-05T22:41:54;13.30;;;5.90;;
72590;SDS011;60625;51.212;5.952;2023-04-05T22:46:55;11.10;;;5.60;;
72590;SDS011;60625;51.212;5.952;2023-04-05T22:51:56;14.40;;;6.60;;
72590;SDS011;60625;51.212;5.952;2023-04-05T22:56:56;12.00;;;6.10;;
72590;SDS011;60625;51.212;5.952;2023-04-05T23:01:56;13.80;;;6.90;;
72590;SDS011;60625;51.212;5.952;2023-04-05T23:06:57;15.00;;;6.80;;
72590;SDS011;60625;51.212;5.952;2023-04-05T23:11:58;13.90;;;5.90;;
72590;SDS011;60625;51.212;5.952;2023-04-05T23:16:59;12.90;;;5.60;;
72590;SDS011;60625;51.212;5.952;2023-04-05T23:22:00;14.50;;;6.20;;
72590;SDS011;60625;51.212;5.952;2023-04-05T23:27:01;11.00;;;5.90;;
72590;SDS011;60625;51.212;5.952;2023-04-05T23:32:01;11.40;;;6.00;;
72590;SDS011;60625;51.212;5.952;2023-04-05T23:37:02;16.20;;;6.20;;
72590;SDS011;60625;51.212;5.952;2023-04-05T23:42:02;12.10;;;5.40;;
72590;SDS011;60625;51.212;5.952;2023-04-05T23:47:03;15.10;;;5.80;;
72590;SDS011;60625;51.212;5.952;2023-04-05T23:52:04;12.80;;;6.10;;
72590;SDS011;60625;51.212;5.952;2023-04-05T23:57:05;14.40;;;6.30;;
